sensor_id;sensor_type;location;lat;lon;timestamp;pressure;altitude;pressure_sealevel;temperature;humidity
10127;BME280;13080;42.608;23.362;2022-10-19T00:02:08;93294.34;;;4.15;69.21
10127;BME280;13080;42.608;23.362;2022-10-19T00:04:35;93297.50;;;4.18;69.37
10127;BME280;13080;42.608;23.362;2022-10-19T00:07:02;93296.72;;;4.17;69.14
10127;BME280;13080;42.608;23.362;2022-10-19T00:09:29;93288.69;;;4.27;68.95
10127;BME280;13080;42.608;23.362;2022-10-19T00:11:55;93282.47;;;4.42;68.91
10127;BME280;13080;42.608;23.362;2022-10-19T00:14:24;93284.19;;;4.28;70.00
10127;BME280;13080;42.608;23.362;2022-10-19T00:16:52;93281.53;;;4.28;70.26
10127;BME280;13080;42.608;23.362;2022-10-19T00:19:23;93272.53;;;4.05;71.81
10127;BME280;13080;42.608;23.362;2022-10-19T00:21:50;93276.19;;;4.09;72.06
10127;BME280;13080;42.608;23.362;2022-10-19T00:24:17;93270.38;;;4.07;71.79
10127;BME280;13080;42.608;23.362;2022-10-19T00:26:44;93272.00;;;4.03;72.08
10127;BME280;13080;42.608;23.362;2022-10-19T00:29:12;93274.69;;;3.98;72.95
10127;BME280;13080;42.608;23.362;2022-10-19T00:31:41;93268.06;;;4.00;72.76
10127;BME280;13080;42.608;23.362;2022-10-19T00:34:08;93258.84;;;3.98;72.04
10127;BME280;13080;42.608;23.362;2022-10-19T00:36:38;93257.28;;;3.96;72.06
10127;BME280;13080;42.608;23.362;2022-10-19T00:39:07;93250.94;;;3.98;71.59
10127;BME280;13080;42.608;23.362;2022-10-19T00:41:36;93246.69;;;4.02;71.60
10127;BME280;13080;42.608;23.362;2022-10-19T00:44:05;93238.25;;;4.00;71.32
10127;BME280;13080;42.608;23.362;2022-10-19T00:46:35;93237.78;;;3.92;71.26
10127;BME280;13080;42.608;23.362;2022-10-19T00:49:05;93234.97;;;3.79;72.29
10127;BME280;13080;42.608;23.362;2022-10-19T00:51:35;93227.31;;;3.82;73.24
10127;BME280;13080;42.608;23.362;2022-10-19T00:54:04;93224.47;;;3.73;73.01
10127;BME280;13080;42.608;23.362;2022-10-19T00:56:32;93212.56;;;3.76;74.18
10127;BME280;13080;42.608;23.362;2022-10-19T00:59:02;93218.03;;;3.85;74.59
10127;BME280;13080;42.608;23.362;2022-10-19T01:01:30;93221.28;;;3.77;74.65
10127;BME280;13080;42.608;23.362;2022-10-19T01:03:58;93225.25;;;3.74;73.83
10127;BME280;13080;42.608;23.362;2022-10-19T01:06:27;93218.03;;;3.85;73.36
10127;BME280;13080;42.608;23.362;2022-10-19T01:08:54;93218.81;;;3.85;73.19
10127;BME280;13080;42.608;23.362;2022-10-19T01:11:28;93212.03;;;3.79;74.14
10127;BME280;13080;42.608;23.362;2022-10-19T01:14:06;93205.94;;;3.84;73.62
10127;BME280;13080;42.608;23.362;2022-10-19T01:16:46;93202.84;;;3.71;73.55
10127;BME280;13080;42.608;23.362;2022-10-19T01:19:27;93199.19;;;3.67;73.40
10127;BME280;13080;42.608;23.362;2022-10-19T01:22:13;93192.44;;;3.56;74.45
10127;BME280;13080;42.608;23.362;2022-10-19T01:24:56;93191.13;;;3.53;75.70
10127;BME280;13080;42.608;23.362;2022-10-19T01:27:45;93193.25;;;3.51;76.44
10127;BME280;13080;42.608;23.362;2022-10-19T01:30:31;93183.53;;;3.47;76.00
10127;BME280;13080;42.608;23.362;2022-10-19T01:33:15;93185.59;;;3.55;75.59
10127;BME280;13080;42.608;23.362;2022-10-19T01:35:54;93183.22;;;3.53;75.56
10127;BME280;13080;42.608;23.362;2022-10-19T01:38:30;93178.50;;;3.50;75.49
10127;BME280;13080;42.608;23.362;2022-10-19T01:41:07;93177.78;;;3.40;75.92
10127;BME280;13080;42.608;23.362;2022-10-19T01:43:40;93171.75;;;3.34;76.12
10127;BME280;13080;42.608;23.362;2022-10-19T01:46:13;93174.97;;;3.31;75.84
10127;BME280;13080;42.608;23.362;2022-10-19T01:48:47;93169.69;;;3.31;75.22
10127;BME280;13080;42.608;23.362;2022-10-19T01:51:18;93164.97;;;3.28;75.32
10127;BME280;13080;42.608;23.362;2022-10-19T01:53:49;93163.63;;;3.30;75.47
10127;BME280;13080;42.608;23.362;2022-10-19T01:56:20;93161.56;;;3.27;75.32
10127;BME280;13080;42.608;23.362;2022-10-19T01:58:50;93170.78;;;3.25;75.61
10127;BME280;13080;42.608;23.362;2022-10-19T02:01:22;93158.94;;;3.22;75.74
10127;BME280;13080;42.608;23.362;2022-10-19T02:03:52;93163.94;;;3.24;76.00
10127;BME280;13080;42.608;23.362;2022-10-19T02:06:19;93163.84;;;3.34;74.92
10127;BME280;13080;42.608;23.362;2022-10-19T02:08:48;93164.53;;;3.16;74.21
10127;BME280;13080;42.608;23.362;2022-10-19T02:11:16;93161.94;;;3.10;74.81
10127;BME280;13080;42.608;23.362;2022-10-19T02:13:45;93158.25;;;3.06;75.07
10127;BME280;13080;42.608;23.362;2022-10-19T02:16:17;93162.50;;;3.02;75.13
10127;BME280;13080;42.608;23.362;2022-10-19T02:18:48;93160.63;;;3.08;75.55
10127;BME280;13080;42.608;23.362;2022-10-19T02:21:17;93156.56;;;3.26;75.43
10127;BME280;13080;42.608;23.362;2022-10-19T02:23:44;93160.38;;;3.09;76.07
10127;BME280;13080;42.608;23.362;2022-10-19T02:26:11;93158.81;;;3.03;76.10
10127;BME280;13080;42.608;23.362;2022-10-19T02:28:38;93152.06;;;2.87;75.74
10127;BME280;13080;42.608;23.362;2022-10-19T02:31:05;93161.25;;;2.95;75.20
10127;BME280;13080;42.608;23.362;2022-10-19T02:33:32;93156.19;;;2.98;75.21
10127;BME280;13080;42.608;23.362;2022-10-19T02:36:01;93159.97;;;2.87;75.85
10127;BME280;13080;42.608;23.362;2022-10-19T02:38:27;93164.50;;;2.81;75.86
10127;BME280;13080;42.608;23.362;2022-10-19T02:40:59;93158.50;;;2.70;76.16
10127;BME280;13080;42.608;23.362;2022-10-19T02:43:29;93157.97;;;2.68;76.15
10127;BME280;13080;42.608;23.362;2022-10-19T02:46:01;93152.13;;;2.77;76.37
10127;BME280;13080;42.608;23.362;2022-10-19T02:48:30;93156.03;;;2.89;75.79
10127;BME280;13080;42.608;23.362;2022-10-19T02:51:00;93153.44;;;2.79;74.98
10127;BME280;13080;42.608;23.362;2022-10-19T02:53:27;93147.34;;;2.84;74.60
10127;BME280;13080;42.608;23.362;2022-10-19T02:55:54;93145.22;;;2.86;73.72
10127;BME280;13080;42.608;23.362;2022-10-19T02:58:21;93140.00;;;2.81;73.37
10127;BME280;13080;42.608;23.362;2022-10-19T03:00:47;93143.16;;;2.78;73.38
10127;BME280;13080;42.608;23.362;2022-10-19T03:03:14;93139.72;;;2.82;73.64
10127;BME280;13080;42.608;23.362;2022-10-19T03:05:41;93142.28;;;2.92;72.40
10127;BME280;13080;42.608;23.362;2022-10-19T03:08:09;93134.53;;;3.06;71.73
10127;BME280;13080;42.608;23.362;2022-10-19T03:10:36;93140.06;;;3.10;71.30
10127;BME280;13080;42.608;23.362;2022-10-19T03:13:02;93135.22;;;3.22;70.57
10127;BME280;13080;42.608;23.362;2022-10-19T03:15:29;93135.97;;;3.28;69.96
10127;BME280;13080;42.608;23.362;2022-10-19T03:17:56;93138.66;;;3.18;69.97
10127;BME280;13080;42.608;23.362;2022-10-19T03:20:23;93138.72;;;3.12;69.80
10127;BME280;13080;42.608;23.362;2022-10-19T03:22:49;93143.94;;;3.18;70.12
10127;BME280;13080;42.608;23.362;2022-10-19T03:25:18;93141.50;;;3.26;70.17
10127;BME280;13080;42.608;23.362;2022-10-19T03:27:45;93148.13;;;3.24;70.04
10127;BME280;13080;42.608;23.362;2022-10-19T03:30:11;93154.53;;;3.12;71.05
10127;BME280;13080;42.608;23.362;2022-10-19T03:32:38;93153.16;;;3.20;70.77
10127;BME280;13080;42.608;23.362;2022-10-19T03:35:06;93142.22;;;3.37;69.88
10127;BME280;13080;42.608;23.362;2022-10-19T03:37:33;93145.72;;;3.27;69.74
10127;BME280;13080;42.608;23.362;2022-10-19T03:40:00;93143.69;;;3.19;70.62
10127;BME280;13080;42.608;23.362;2022-10-19T03:42:28;93135.56;;;3.10;71.03
10127;BME280;13080;42.608;23.362;2022-10-19T03:44:54;93139.31;;;3.04;71.57
10127;BME280;13080;42.608;23.362;2022-10-19T03:47:22;93132.47;;;3.03;72.29
10127;BME280;13080;42.608;23.362;2022-10-19T03:49:48;93127.72;;;3.00;72.26
10127;BME280;13080;42.608;23.362;2022-10-19T03:52:16;93131.47;;;2.94;72.38
10127;BME280;13080;42.608;23.362;2022-10-19T03:54:43;93126.22;;;2.89;74.15
10127;BME280;13080;42.608;23.362;2022-10-19T03:57:11;93126.00;;;2.85;73.99
10127;BME280;13080;42.608;23.362;2022-10-19T03:59:39;93130.97;;;2.87;74.52
10127;BME280;13080;42.608;23.362;2022-10-19T04:02:06;93123.13;;;2.82;74.73
10127;BME280;13080;42.608;23.362;2022-10-19T04:04:33;93125.84;;;2.66;74.81
10127;BME280;13080;42.608;23.362;2022-10-19T04:06:59;93122.50;;;2.56;74.92
10127;BME280;13080;42.608;23.362;2022-10-19T04:09:26;93128.19;;;2.73;74.22
10127;BME280;13080;42.608;23.362;2022-10-19T04:11:53;93131.31;;;2.75;73.36
10127;BME280;13080;42.608;23.362;2022-10-19T04:14:20;93134.31;;;2.63;73.50
10127;BME280;13080;42.608;23.362;2022-10-19T04:16:49;93121.66;;;2.65;73.61
10127;BME280;13080;42.608;23.362;2022-10-19T04:19:15;93116.03;;;2.77;73.52
10127;BME280;13080;42.608;23.362;2022-10-19T04:21:42;93125.47;;;2.83;73.15
10127;BME280;13080;42.608;23.362;2022-10-19T04:24:11;93116.59;;;2.69;73.62
10127;BME280;13080;42.608;23.362;2022-10-19T04:26:39;93107.56;;;2.80;73.14
10127;BME280;13080;42.608;23.362;2022-10-19T04:29:06;93104.63;;;2.87;74.01
10127;BME280;13080;42.608;23.362;2022-10-19T04:31:33;93107.50;;;2.90;73.99
10127;BME280;13080;42.608;23.362;2022-10-19T04:34:01;93098.56;;;2.91;73.31
10127;BME280;13080;42.608;23.362;2022-10-19T04:36:28;93098.00;;;2.95;73.53
10127;BME280;13080;42.608;23.362;2022-10-19T04:38:55;93101.69;;;2.94;73.85
10127;BME280;13080;42.608;23.362;2022-10-19T04:41:22;93093.00;;;2.93;73.74
10127;BME280;13080;42.608;23.362;2022-10-19T04:43:54;93098.88;;;2.85;76.27
10127;BME280;13080;42.608;23.362;2022-10-19T04:46:21;93090.59;;;2.97;76.09
10127;BME280;13080;42.608;23.362;2022-10-19T04:48:48;93098.88;;;2.85;75.78
10127;BME280;13080;42.608;23.362;2022-10-19T04:51:19;93101.47;;;2.90;76.05
10127;BME280;13080;42.608;23.362;2022-10-19T04:53:46;93102.00;;;2.87;75.89
10127;BME280;13080;42.608;23.362;2022-10-19T04:56:15;93102.75;;;2.92;76.16
10127;BME280;13080;42.608;23.362;2022-10-19T04:58:42;93099.84;;;2.94;76.81
10127;BME280;13080;42.608;23.362;2022-10-19T05:01:11;93099.59;;;2.90;76.60
10127;BME280;13080;42.608;23.362;2022-10-19T05:03:38;93102.59;;;3.13;75.46
10127;BME280;13080;42.608;23.362;2022-10-19T05:06:06;93102.28;;;3.20;75.25
10127;BME280;13080;42.608;23.362;2022-10-19T05:08:35;93101.22;;;3.21;74.16
10127;BME280;13080;42.608;23.362;2022-10-19T05:11:04;93100.97;;;3.17;74.63
10127;BME280;13080;42.608;23.362;2022-10-19T05:13:32;93108.19;;;3.36;73.47
10127;BME280;13080;42.608;23.362;2022-10-19T05:16:00;93100.75;;;3.43;73.36
10127;BME280;13080;42.608;23.362;2022-10-19T05:18:27;93101.25;;;3.45;72.89
10127;BME280;13080;42.608;23.362;2022-10-19T05:21:00;93107.88;;;3.42;72.66
10127;BME280;13080;42.608;23.362;2022-10-19T05:23:27;93104.91;;;3.49;72.47
10127;BME280;13080;42.608;23.362;2022-10-19T05:26:00;93100.66;;;3.53;72.96
10127;BME280;13080;42.608;23.362;2022-10-19T05:28:27;93098.41;;;3.65;73.34
10127;BME280;13080;42.608;23.362;2022-10-19T05:30:54;93100.22;;;3.70;73.81
10127;BME280;13080;42.608;23.362;2022-10-19T05:33:21;93101.22;;;3.74;74.84
10127;BME280;13080;42.608;23.362;2022-10-19T05:35:47;93088.44;;;3.86;74.84
10127;BME280;13080;42.608;23.362;2022-10-19T05:38:14;93095.94;;;3.98;74.39
10127;BME280;13080;42.608;23.362;2022-10-19T05:40:44;93097.97;;;4.06;74.43
10127;BME280;13080;42.608;23.362;2022-10-19T05:43:12;93107.06;;;4.19;73.84
10127;BME280;13080;42.608;23.362;2022-10-19T05:45:39;93105.31;;;4.33;71.85
10127;BME280;13080;42.608;23.362;2022-10-19T05:48:05;93103.31;;;4.44;70.95
10127;BME280;13080;42.608;23.362;2022-10-19T05:50:32;93104.44;;;4.57;69.86
10127;BME280;13080;42.608;23.362;2022-10-19T05:52:59;93100.81;;;4.72;69.56
10127;BME280;13080;42.608;23.362;2022-10-19T05:55:26;93107.97;;;4.90;68.02
10127;BME280;13080;42.608;23.362;2022-10-19T05:57:52;93104.03;;;4.88;69.02
10127;BME280;13080;42.608;23.362;2022-10-19T06:00:21;93106.69;;;4.88;69.11
10127;BME280;13080;42.608;23.362;2022-10-19T06:02:47;93114.06;;;5.24;66.42
10127;BME280;13080;42.608;23.362;2022-10-19T06:05:14;93108.91;;;5.32;67.86
10127;BME280;13080;42.608;23.362;2022-10-19T06:07:41;93112.31;;;5.33;69.45
10127;BME280;13080;42.608;23.362;2022-10-19T06:10:08;93109.81;;;5.41;69.72
10127;BME280;13080;42.608;23.362;2022-10-19T06:12:35;93113.31;;;5.70;69.54
10127;BME280;13080;42.608;23.362;2022-10-19T06:15:03;93115.75;;;5.80;69.21
10127;BME280;13080;42.608;23.362;2022-10-19T06:17:31;93117.00;;;5.69;70.43
10127;BME280;13080;42.608;23.362;2022-10-19T06:19:58;93124.06;;;5.73;70.92
10127;BME280;13080;42.608;23.362;2022-10-19T06:22:24;93129.97;;;5.84;70.47
10127;BME280;13080;42.608;23.362;2022-10-19T06:24:51;93131.16;;;5.92;70.05
10127;BME280;13080;42.608;23.362;2022-10-19T06:27:18;93134.38;;;5.75;71.15
10127;BME280;13080;42.608;23.362;2022-10-19T06:29:45;93135.31;;;5.98;69.04
10127;BME280;13080;42.608;23.362;2022-10-19T06:32:11;93143.16;;;6.03;68.96
10127;BME280;13080;42.608;23.362;2022-10-19T06:34:39;93146.13;;;6.15;68.77
10127;BME280;13080;42.608;23.362;2022-10-19T06:37:06;93146.19;;;5.96;70.11
10127;BME280;13080;42.608;23.362;2022-10-19T06:39:33;93138.97;;;6.02;70.64
10127;BME280;13080;42.608;23.362;2022-10-19T06:42:00;93136.69;;;6.23;68.86
10127;BME280;13080;42.608;23.362;2022-10-19T06:44:27;93135.94;;;6.22;68.88
10127;BME280;13080;42.608;23.362;2022-10-19T06:46:54;93138.56;;;6.36;68.33
10127;BME280;13080;42.608;23.362;2022-10-19T06:49:21;93131.75;;;6.72;66.53
10127;BME280;13080;42.608;23.362;2022-10-19T06:51:49;93130.38;;;7.11;63.77
10127;BME280;13080;42.608;23.362;2022-10-19T06:54:16;93139.91;;;7.12;64.43
10127;BME280;13080;42.608;23.362;2022-10-19T06:56:43;93131.13;;;7.25;60.67
10127;BME280;13080;42.608;23.362;2022-10-19T06:59:09;93123.75;;;7.44;61.24
10127;BME280;13080;42.608;23.362;2022-10-19T07:01:37;93132.66;;;7.48;60.93
10127;BME280;13080;42.608;23.362;2022-10-19T07:04:04;93122.53;;;7.50;61.43
10127;BME280;13080;42.608;23.362;2022-10-19T07:06:31;93117.72;;;7.84;60.74
10127;BME280;13080;42.608;23.362;2022-10-19T07:08:59;93113.13;;;8.07;58.73
10127;BME280;13080;42.608;23.362;2022-10-19T07:11:27;93116.50;;;7.90;59.89
10127;BME280;13080;42.608;23.362;2022-10-19T07:13:53;93112.66;;;8.05;59.69
10127;BME280;13080;42.608;23.362;2022-10-19T07:16:21;93120.66;;;8.13;60.02
10127;BME280;13080;42.608;23.362;2022-10-19T07:18:49;93114.94;;;8.29;59.05
10127;BME280;13080;42.608;23.362;2022-10-19T07:21:19;93121.94;;;8.56;58.50
10127;BME280;13080;42.608;23.362;2022-10-19T07:23:47;93111.97;;;8.70;56.58
10127;BME280;13080;42.608;23.362;2022-10-19T07:26:16;93115.06;;;8.64;57.51
10127;BME280;13080;42.608;23.362;2022-10-19T07:28:46;93114.00;;;8.82;57.44
10127;BME280;13080;42.608;23.362;2022-10-19T07:31:15;93108.38;;;9.01;57.18
10127;BME280;13080;42.608;23.362;2022-10-19T07:33:44;93106.81;;;9.09;57.17
10127;BME280;13080;42.608;23.362;2022-10-19T07:36:11;93106.81;;;9.26;57.15
10127;BME280;13080;42.608;23.362;2022-10-19T07:38:38;93102.25;;;9.53;56.95
10127;BME280;13080;42.608;23.362;2022-10-19T07:41:07;93106.28;;;9.68;56.79
10127;BME280;13080;42.608;23.362;2022-10-19T07:43:35;93100.66;;;9.61;57.63
10127;BME280;13080;42.608;23.362;2022-10-19T07:46:04;93101.09;;;9.80;56.12
10127;BME280;13080;42.608;23.362;2022-10-19T07:48:31;93099.69;;;9.74;57.13
10127;BME280;13080;42.608;23.362;2022-10-19T07:51:00;93096.84;;;9.88;56.84
10127;BME280;13080;42.608;23.362;2022-10-19T07:53:27;93096.53;;;9.89;56.28
10127;BME280;13080;42.608;23.362;2022-10-19T07:55:54;93096.00;;;10.05;56.68
10127;BME280;13080;42.608;23.362;2022-10-19T07:58:21;93085.19;;;10.01;57.67
10127;BME280;13080;42.608;23.362;2022-10-19T08:00:49;93087.13;;;10.22;55.88
10127;BME280;13080;42.608;23.362;2022-10-19T08:03:16;93083.69;;;10.30;56.02
10127;BME280;13080;42.608;23.362;2022-10-19T08:05:43;93086.06;;;10.23;56.60
10127;BME280;13080;42.608;23.362;2022-10-19T08:08:09;93082.69;;;10.43;56.70
10127;BME280;13080;42.608;23.362;2022-10-19T08:10:36;93087.94;;;10.60;56.77
10127;BME280;13080;42.608;23.362;2022-10-19T08:13:03;93082.88;;;10.89;55.12
10127;BME280;13080;42.608;23.362;2022-10-19T08:15:30;93090.38;;;10.95;55.70
10127;BME280;13080;42.608;23.362;2022-10-19T08:17:58;93083.97;;;11.09;56.05
10127;BME280;13080;42.608;23.362;2022-10-19T08:20:25;93083.97;;;11.09;53.59
10127;BME280;13080;42.608;23.362;2022-10-19T08:22:52;93087.28;;;11.27;53.01
10127;BME280;13080;42.608;23.362;2022-10-19T08:25:19;93089.38;;;11.21;52.63
10127;BME280;13080;42.608;23.362;2022-10-19T08:27:46;93079.59;;;11.25;54.90
10127;BME280;13080;42.608;23.362;2022-10-19T08:30:12;93074.34;;;11.50;53.87
10127;BME280;13080;42.608;23.362;2022-10-19T08:32:39;93077.41;;;11.60;53.30
10127;BME280;13080;42.608;23.362;2022-10-19T08:35:08;93073.88;;;11.81;52.19
10127;BME280;13080;42.608;23.362;2022-10-19T08:37:34;93070.28;;;11.98;54.67
10127;BME280;13080;42.608;23.362;2022-10-19T08:40:02;93069.84;;;11.96;53.43
10127;BME280;13080;42.608;23.362;2022-10-19T08:42:34;93075.88;;;12.30;52.49
10127;BME280;13080;42.608;23.362;2022-10-19T08:45:35;93071.63;;;12.28;51.51
10127;BME280;13080;42.608;23.362;2022-10-19T08:48:22;93069.63;;;12.25;52.31
10127;BME280;13080;42.608;23.362;2022-10-19T08:50:51;93079.56;;;12.25;53.08
10127;BME280;13080;42.608;23.362;2022-10-19T08:53:22;93072.53;;;12.45;50.64
10127;BME280;13080;42.608;23.362;2022-10-19T08:55:56;93071.97;;;12.52;50.06
10127;BME280;13080;42.608;23.362;2022-10-19T08:58:38;93063.63;;;12.41;51.34
10127;BME280;13080;42.608;23.362;2022-10-19T09:01:14;93066.03;;;12.71;48.71
10127;BME280;13080;42.608;23.362;2022-10-19T09:03:45;93066.72;;;12.67;49.25
10127;BME280;13080;42.608;23.362;2022-10-19T09:06:19;93068.84;;;12.74;50.27
10127;BME280;13080;42.608;23.362;2022-10-19T09:08:49;93067.47;;;12.93;49.83
10127;BME280;13080;42.608;23.362;2022-10-19T09:11:19;93060.41;;;13.00;48.86
10127;BME280;13080;42.608;23.362;2022-10-19T09:13:48;93059.47;;;13.21;49.26
10127;BME280;13080;42.608;23.362;2022-10-19T09:16:17;93054.09;;;13.33;48.54
10127;BME280;13080;42.608;23.362;2022-10-19T09:18:45;93052.41;;;13.41;47.83
10127;BME280;13080;42.608;23.362;2022-10-19T09:21:15;93057.97;;;13.64;48.52
10127;BME280;13080;42.608;23.362;2022-10-19T09:23:51;93050.00;;;13.67;48.41
10127;BME280;13080;42.608;23.362;2022-10-19T09:26:23;93052.09;;;13.74;47.12
10127;BME280;13080;42.608;23.362;2022-10-19T09:28:54;93055.22;;;13.76;47.21
10127;BME280;13080;42.608;23.362;2022-10-19T09:31:27;93057.59;;;13.93;48.41
10127;BME280;13080;42.608;23.362;2022-10-19T09:34:00;93051.19;;;13.98;47.53
10127;BME280;13080;42.608;23.362;2022-10-19T09:36:34;93055.94;;;14.05;47.17
10127;BME280;13080;42.608;23.362;2022-10-19T09:39:04;93060.81;;;13.99;47.62
10127;BME280;13080;42.608;23.362;2022-10-19T09:41:31;93059.94;;;13.95;47.86
10127;BME280;13080;42.608;23.362;2022-10-19T09:43:58;93061.31;;;14.05;46.75
10127;BME280;13080;42.608;23.362;2022-10-19T09:46:33;93061.41;;;14.08;47.25
10127;BME280;13080;42.608;23.362;2022-10-19T09:49:03;93065.03;;;14.16;46.44
10127;BME280;13080;42.608;23.362;2022-10-19T09:51:45;93065.59;;;14.22;46.56
10127;BME280;13080;42.608;23.362;2022-10-19T09:54:34;93063.75;;;14.10;46.67
10127;BME280;13080;42.608;23.362;2022-10-19T09:57:02;93065.38;;;14.14;47.08
10127;BME280;13080;42.608;23.362;2022-10-19T09:59:32;93052.22;;;14.25;48.23
10127;BME280;13080;42.608;23.362;2022-10-19T10:04:55;93058.91;;;14.31;46.21
10127;BME280;13080;42.608;23.362;2022-10-19T10:07:24;93059.84;;;14.23;44.60
10127;BME280;13080;42.608;23.362;2022-10-19T10:09:54;93045.66;;;14.23;44.69
10127;BME280;13080;42.608;23.362;2022-10-19T10:12:21;93048.59;;;14.33;45.31
10127;BME280;13080;42.608;23.362;2022-10-19T10:14:48;93047.03;;;14.48;44.44
10127;BME280;13080;42.608;23.362;2022-10-19T10:17:18;93042.16;;;14.54;44.39
10127;BME280;13080;42.608;23.362;2022-10-19T10:20:01;93047.28;;;14.59;44.35
10127;BME280;13080;42.608;23.362;2022-10-19T10:22:31;93029.19;;;14.56;45.08
10127;BME280;13080;42.608;23.362;2022-10-19T10:25:00;93027.06;;;14.81;45.64
10127;BME280;13080;42.608;23.362;2022-10-19T10:27:30;93030.94;;;14.84;43.86
10127;BME280;13080;42.608;23.362;2022-10-19T10:29:57;93021.25;;;14.79;43.66
10127;BME280;13080;42.608;23.362;2022-10-19T10:32:25;93015.44;;;14.77;44.40
10127;BME280;13080;42.608;23.362;2022-10-19T10:34:59;93014.28;;;14.94;42.80
10127;BME280;13080;42.608;23.362;2022-10-19T10:37:29;93007.72;;;14.91;42.58
10127;BME280;13080;42.608;23.362;2022-10-19T10:39:59;93005.88;;;14.95;42.71
10127;BME280;13080;42.608;23.362;2022-10-19T10:42:28;93003.25;;;14.99;42.02
10127;BME280;13080;42.608;23.362;2022-10-19T10:44:56;93001.00;;;15.21;42.73
10127;BME280;13080;42.608;23.362;2022-10-19T10:47:25;92998.88;;;15.10;41.33
10127;BME280;13080;42.608;23.362;2022-10-19T10:49:56;93005.94;;;15.18;38.64
10127;BME280;13080;42.608;23.362;2022-10-19T10:52:24;93000.00;;;15.09;37.84
10127;BME280;13080;42.608;23.362;2022-10-19T10:55:01;92993.41;;;15.26;37.97
10127;BME280;13080;42.608;23.362;2022-10-19T10:57:31;92987.25;;;15.26;37.36
10127;BME280;13080;42.608;23.362;2022-10-19T11:00:03;92979.50;;;15.21;37.02
10127;BME280;13080;42.608;23.362;2022-10-19T11:02:39;92974.78;;;15.37;36.83
10127;BME280;13080;42.608;23.362;2022-10-19T11:05:11;92979.19;;;15.45;37.67
10127;BME280;13080;42.608;23.362;2022-10-19T11:07:42;92968.69;;;15.40;36.56
10127;BME280;13080;42.608;23.362;2022-10-19T11:10:19;92973.84;;;15.49;37.17
10127;BME280;13080;42.608;23.362;2022-10-19T11:12:51;92967.34;;;15.50;37.38
10127;BME280;13080;42.608;23.362;2022-10-19T11:15:21;92965.13;;;15.55;37.33
10127;BME280;13080;42.608;23.362;2022-10-19T11:17:56;92956.06;;;15.83;37.39
10127;BME280;13080;42.608;23.362;2022-10-19T11:20:28;92951.31;;;15.76;35.94
10127;BME280;13080;42.608;23.362;2022-10-19T11:23:03;92949.88;;;15.83;36.43
10127;BME280;13080;42.608;23.362;2022-10-19T11:25:39;92949.53;;;15.84;35.90
10127;BME280;13080;42.608;23.362;2022-10-19T11:28:19;92951.09;;;15.85;37.11
10127;BME280;13080;42.608;23.362;2022-10-19T11:30:54;92942.22;;;15.85;36.68
10127;BME280;13080;42.608;23.362;2022-10-19T11:33:39;92940.88;;;15.98;35.98
10127;BME280;13080;42.608;23.362;2022-10-19T11:36:18;92937.91;;;16.03;35.99
10127;BME280;13080;42.608;23.362;2022-10-19T11:39:10;92933.19;;;15.96;34.75
10127;BME280;13080;42.608;23.362;2022-10-19T11:41:48;92943.34;;;16.07;34.52
10127;BME280;13080;42.608;23.362;2022-10-19T11:44:34;92928.50;;;15.93;33.93
10127;BME280;13080;42.608;23.362;2022-10-19T11:47:17;92936.03;;;16.07;35.49
10127;BME280;13080;42.608;23.362;2022-10-19T11:49:54;92933.06;;;16.12;34.93
10127;BME280;13080;42.608;23.362;2022-10-19T11:52:31;92923.88;;;16.17;33.79
10127;BME280;13080;42.608;23.362;2022-10-19T11:55:05;92926.50;;;16.13;34.84
10127;BME280;13080;42.608;23.362;2022-10-19T11:57:43;92918.13;;;16.18;33.43
10127;BME280;13080;42.608;23.362;2022-10-19T12:00:15;92920.47;;;16.20;34.00
10127;BME280;13080;42.608;23.362;2022-10-19T12:03:09;92916.66;;;16.21;34.04
10127;BME280;13080;42.608;23.362;2022-10-19T12:05:50;92911.38;;;16.32;34.01
10127;BME280;13080;42.608;23.362;2022-10-19T12:08:31;92912.91;;;16.29;33.88
10127;BME280;13080;42.608;23.362;2022-10-19T12:11:10;92914.22;;;16.42;34.44
10127;BME280;13080;42.608;23.362;2022-10-19T12:13:48;92914.66;;;16.45;36.36
10127;BME280;13080;42.608;23.362;2022-10-19T12:16:17;92899.22;;;16.41;34.03
10127;BME280;13080;42.608;23.362;2022-10-19T12:18:47;92897.63;;;16.37;34.27
10127;BME280;13080;42.608;23.362;2022-10-19T12:21:20;92909.06;;;16.57;34.02
10127;BME280;13080;42.608;23.362;2022-10-19T12:23:49;92900.97;;;16.57;34.36
10127;BME280;13080;42.608;23.362;2022-10-19T12:26:19;92902.94;;;16.63;33.68
10127;BME280;13080;42.608;23.362;2022-10-19T12:28:50;92901.78;;;16.61;33.64
10127;BME280;13080;42.608;23.362;2022-10-19T12:31:19;92901.81;;;16.34;33.54
10127;BME280;13080;42.608;23.362;2022-10-19T12:33:52;92886.97;;;16.48;35.25
10127;BME280;13080;42.608;23.362;2022-10-19T12:36:28;92885.38;;;16.43;34.33
10127;BME280;13080;42.608;23.362;2022-10-19T12:39:03;92900.09;;;16.49;35.31
10127;BME280;13080;42.608;23.362;2022-10-19T12:41:38;92888.13;;;16.47;36.67
10127;BME280;13080;42.608;23.362;2022-10-19T12:44:22;92887.78;;;16.48;36.43
10127;BME280;13080;42.608;23.362;2022-10-19T12:46:58;92892.84;;;16.53;36.04
10127;BME280;13080;42.608;23.362;2022-10-19T12:49:36;92894.75;;;16.53;35.08
10127;BME280;13080;42.608;23.362;2022-10-19T12:52:08;92893.00;;;16.37;35.92
10127;BME280;13080;42.608;23.362;2022-10-19T12:54:37;92890.50;;;16.52;36.03
10127;BME280;13080;42.608;23.362;2022-10-19T12:57:25;92884.47;;;16.62;34.75
10127;BME280;13080;42.608;23.362;2022-10-19T13:00:18;92888.41;;;16.68;35.07
10127;BME280;13080;42.608;23.362;2022-10-19T13:02:46;92885.53;;;16.54;36.48
10127;BME280;13080;42.608;23.362;2022-10-19T13:05:19;92885.84;;;16.49;37.38
10127;BME280;13080;42.608;23.362;2022-10-19T13:07:47;92885.34;;;16.39;36.50
10127;BME280;13080;42.608;23.362;2022-10-19T13:10:19;92886.25;;;16.51;36.44
10127;BME280;13080;42.608;23.362;2022-10-19T13:12:47;92887.78;;;16.48;37.00
10127;BME280;13080;42.608;23.362;2022-10-19T13:22:11;92881.66;;;16.25;37.45